Fort Harrison, Montana
Current Conditions -  °F | °C
As of 7:53 PM on Sunday 23 Nov 2014 (Local Time) from KHLN Reporting Station
Clear Clear  
Wind Chill: 32°   Ceiling: Unl
Heat Index: 37°   Visibility: 10mi
Dew Point: 24°   Wind: 6mph
Humidity: 59%   Direction: 270°W
Pressure: 29.86"   Gusts: 20mph
Location:  46.6°N, 112.09°W
Report Text: KHLN 240253Z 27005G17KT 10SM CLR 03/M04 A2986 RMK AO2 SLP148 T00281044 56013
Loading
Personal Weather Stations






























Interactive Weather Map New forecast layout! Learn more

10-Day Weather Forecast

Advertisements
Track Severe Weather on mobile